Time;durP1;ratioP1;P1;durP2;ratioP2;P2;SDS_P1;SDS_P2;PMS_P1;PMS_P2;Temp;Humidity;BMP_temperature;BMP_pressure;BME280_temperature;BME280_humidity;BME280_pressure;Samples;Min_cycle;Max_cycle;Signal;HPM_P1;HPM_P2
2021/12/11 00:01:18;;;;;;;2.70;2.60;;;;;;;;;;5033964;28;20532;-79
2021/12/11 00:03:48;;;;;;;2.47;2.37;;;;;;;;;;5052595;28;20541;-79
2021/12/11 00:06:16;;;;;;;2.40;2.30;;;;;;;;;;5052645;28;20480;-78
2021/12/11 00:08:45;;;;;;;2.57;2.37;;;;;;;;;;5052397;28;20437;-78
2021/12/11 00:11:14;;;;;;;2.55;2.35;;;;;;;;;;5052443;28;20487;-78
2021/12/11 00:13:42;;;;;;;2.63;2.43;;;;;;;;;;5052278;28;20207;-78
2021/12/11 00:16:10;;;;;;;2.60;2.40;;;;;;;;;;5052491;28;20464;-79
2021/12/11 00:18:39;;;;;;;2.50;2.40;;;;;;;;;;5052285;28;20484;-80
2021/12/11 00:21:08;;;;;;;2.70;2.50;;;;;;;;;;5052365;28;20454;-78
2021/12/11 00:23:37;;;;;;;2.20;2.10;;;;;;;;;;5052193;28;20482;-78
2021/12/11 00:26:05;;;;;;;2.37;2.17;;;;;;;;;;5052011;28;20463;-78
2021/12/11 00:28:32;;;;;;;2.90;2.70;;;;;;;;;;5052132;28;20441;-78
2021/12/11 00:31:00;;;;;;;2.83;2.63;;;;;;;;;;5051882;28;20860;-78
2021/12/11 00:33:28;;;;;;;3.50;2.70;;;;;;;;;;5051555;28;20443;-79
2021/12/11 00:35:57;;;;;;;2.70;2.50;;;;;;;;;;5052178;28;20461;-79
2021/12/11 00:38:26;;;;;;;2.40;2.20;;;;;;;;;;5052695;28;20704;-79
2021/12/11 00:40:54;;;;;;;2.40;2.30;;;;;;;;;;5056849;28;20448;-78
2021/12/11 00:43:28;;;;;;;2.53;2.33;;;;;;;;;;5055175;28;20451;-80
2021/12/11 00:45:56;;;;;;;3.23;2.93;;;;;;;;;;5055213;28;20524;-78
2021/12/11 00:48:24;;;;;;;3.10;2.80;;;;;;;;;;5060800;28;20445;-78
2021/12/11 00:50:53;;;;;;;5.13;3.17;;;;;;;;;;5059327;28;20438;-78
2021/12/11 00:53:24;;;;;;;2.77;2.60;;;;;;;;;;5054584;28;20859;-80
2021/12/11 00:55:53;;;;;;;3.30;3.10;;;;;;;;;;5053735;28;20500;-79
2021/12/11 00:58:22;;;;;;;3.13;3.03;;;;;;;;;;5052930;28;20874;-79
2021/12/11 01:00:52;;;;;;;3.87;3.57;;;;;;;;;;5052831;28;20497;-77
2021/12/11 01:03:21;;;;;;;2.92;2.80;;;;;;;;;;5053045;28;20782;-78
2021/12/11 01:05:49;;;;;;;3.53;3.23;;;;;;;;;;5054839;28;20239;-78
2021/12/11 01:08:19;;;;;;;4.00;3.70;;;;;;;;;;5058624;28;20437;-78
2021/12/11 01:10:48;;;;;;;3.30;2.80;;;;;;;;;;5059424;28;20451;-79
2021/12/11 01:13:18;;;;;;;2.67;2.47;;;;;;;;;;5062634;28;20456;-78
2021/12/11 01:15:49;;;;;;;3.53;3.23;;;;;;;;;;5053715;28;20567;-80
2021/12/11 01:18:23;;;;;;;2.70;2.60;;;;;;;;;;5054405;28;20482;-78
2021/12/11 01:20:57;;;;;;;2.50;2.40;;;;;;;;;;5059641;28;20448;-79
2021/12/11 01:23:35;;;;;;;2.70;2.60;;;;;;;;;;5061674;28;20436;-79
2021/12/11 01:26:05;;;;;;;2.90;2.70;;;;;;;;;;5058315;28;20464;-78
2021/12/11 01:28:32;;;;;;;2.58;2.40;;;;;;;;;;5059946;28;20933;-78
2021/12/11 01:31:00;;;;;;;2.30;2.20;;;;;;;;;;5059216;28;20712;-80
2021/12/11 01:33:27;;;;;;;1.97;1.83;;;;;;;;;;5055023;28;20454;-79
2021/12/11 01:35:54;;;;;;;2.40;2.30;;;;;;;;;;5061480;28;20451;-78
2021/12/11 01:38:25;;;;;;;2.30;2.20;;;;;;;;;;5054416;28;20606;-81
2021/12/11 01:40:53;;;;;;;1.73;1.70;;;;;;;;;;5054458;28;20195;-79
2021/12/11 01:43:24;;;;;;;1.90;1.80;;;;;;;;;;5057557;28;20937;-79
2021/12/11 01:45:52;;;;;;;1.70;1.70;;;;;;;;;;5057195;28;20489;-79
2021/12/11 01:48:19;;;;;;;1.43;1.43;;;;;;;;;;5055903;28;20520;-79
2021/12/11 01:50:48;;;;;;;1.37;1.37;;;;;;;;;;5056013;28;20826;-80
2021/12/11 01:53:18;;;;;;;1.90;1.80;;;;;;;;;;5056348;28;20445;-79
2021/12/11 01:55:47;;;;;;;1.80;1.70;;;;;;;;;;5055884;28;20704;-79
2021/12/11 01:58:16;;;;;;;1.57;1.57;;;;;;;;;;5056236;28;20519;-79
2021/12/11 02:00:47;;;;;;;1.73;1.63;;;;;;;;;;5054892;28;20958;-79
2021/12/11 02:03:16;;;;;;;1.70;1.60;;;;;;;;;;5054943;28;20430;-79
2021/12/11 02:05:44;;;;;;;1.80;1.70;;;;;;;;;;5055827;28;20861;-79
2021/12/11 02:08:13;;;;;;;2.60;2.40;;;;;;;;;;5054904;28;20445;-80
2021/12/11 02:10:43;;;;;;;1.47;1.40;;;;;;;;;;5055775;28;20444;-79
2021/12/11 02:13:11;;;;;;;1.93;1.83;;;;;;;;;;5055061;28;20463;-79
2021/12/11 02:15:44;;;;;;;1.50;1.50;;;;;;;;;;5055310;28;20474;-80
2021/12/11 02:18:17;;;;;;;1.30;1.30;;;;;;;;;;5056754;28;20443;-80
2021/12/11 02:20:47;;;;;;;1.17;1.17;;;;;;;;;;5060081;28;20941;-79
2021/12/11 02:23:15;;;;;;;1.57;1.57;;;;;;;;;;5060084;28;20446;-80
2021/12/11 02:25:46;;;;;;;1.50;1.50;;;;;;;;;;5059519;28;20453;-79
2021/12/11 02:28:15;;;;;;;1.57;1.57;;;;;;;;;;5058919;28;20433;-80
2021/12/11 02:30:45;;;;;;;1.50;1.50;;;;;;;;;;5058546;28;20426;-78
2021/12/11 02:33:14;;;;;;;1.38;1.38;;;;;;;;;;5076148;28;20512;-78
2021/12/11 02:35:44;;;;;;;1.67;1.67;;;;;;;;;;5079233;28;20260;-77
2021/12/11 02:38:13;;;;;;;1.73;1.63;;;;;;;;;;5079164;28;20440;-77
2021/12/11 02:40:44;;;;;;;1.97;1.97;;;;;;;;;;5078915;28;20210;-77
2021/12/11 02:43:13;;;;;;;1.63;1.63;;;;;;;;;;5069119;28;20463;-79
2021/12/11 02:45:42;;;;;;;2.20;2.10;;;;;;;;;;5061435;28;20237;-79
2021/12/11 02:48:15;;;;;;;1.73;1.73;;;;;;;;;;5062481;28;20434;-79
2021/12/11 02:50:47;;;;;;;1.93;1.83;;;;;;;;;;5059698;28;20435;-80
2021/12/11 02:53:16;;;;;;;2.33;2.23;;;;;;;;;;5066233;28;20440;-79
2021/12/11 02:55:46;;;;;;;2.17;2.10;;;;;;;;;;5070823;28;20455;-79
2021/12/11 02:58:16;;;;;;;2.37;2.27;;;;;;;;;;5057528;28;20431;-80
2021/12/11 03:00:45;;;;;;;2.20;2.10;;;;;;;;;;5057610;28;20451;-80
2021/12/11 03:03:14;;;;;;;2.33;2.23;;;;;;;;;;5057437;28;20448;-79
2021/12/11 03:05:48;;;;;;;2.30;2.20;;;;;;;;;;5056939;28;20474;-80
2021/12/11 03:08:16;;;;;;;2.53;2.37;;;;;;;;;;5056976;28;20459;-79
2021/12/11 03:10:47;;;;;;;2.20;2.10;;;;;;;;;;5056881;28;20453;-79
2021/12/11 03:13:14;;;;;;;2.23;2.17;;;;;;;;;;5057103;28;20426;-80
2021/12/11 03:15:41;;;;;;;2.50;2.40;;;;;;;;;;5057339;28;20490;-79
2021/12/11 03:18:08;;;;;;;2.20;2.10;;;;;;;;;;5057249;28;20438;-80
2021/12/11 03:20:36;;;;;;;2.77;2.67;;;;;;;;;;5056615;28;20485;-80
2021/12/11 03:23:04;;;;;;;2.83;2.73;;;;;;;;;;5056092;28;20442;-80
2021/12/11 03:25:31;;;;;;;2.80;2.70;;;;;;;;;;5056829;28;20455;-80
2021/12/11 03:27:59;;;;;;;2.23;2.13;;;;;;;;;;5057902;28;20493;-78
2021/12/11 03:30:29;;;;;;;2.47;2.27;;;;;;;;;;5057008;28;20446;-78
2021/12/11 03:32:57;;;;;;;2.33;2.33;;;;;;;;;;5056684;28;20446;-78
2021/12/11 03:35:25;;;;;;;2.43;2.33;;;;;;;;;;5056924;28;20469;-79
2021/12/11 03:37:52;;;;;;;2.27;2.17;;;;;;;;;;5057243;28;20452;-78
2021/12/11 03:40:19;;;;;;;2.50;2.40;;;;;;;;;;5056659;28;20485;-78
2021/12/11 03:42:48;;;;;;;2.07;2.07;;;;;;;;;;5056530;28;20443;-79
2021/12/11 03:45:18;;;;;;;2.37;2.27;;;;;;;;;;5056810;28;20457;-80
2021/12/11 03:47:47;;;;;;;2.63;2.53;;;;;;;;;;5055457;28;20438;-80
2021/12/11 03:50:15;;;;;;;2.87;2.77;;;;;;;;;;5057128;28;20441;-79
2021/12/11 03:52:43;;;;;;;3.47;3.30;;;;;;;;;;5056402;28;20445;-79
2021/12/11 03:55:11;;;;;;;2.73;2.63;;;;;;;;;;5055846;28;20453;-80
2021/12/11 03:57:41;;;;;;;3.10;2.90;;;;;;;;;;5056471;28;20461;-77
2021/12/11 04:00:11;;;;;;;3.60;3.50;;;;;;;;;;5056118;28;20470;-79
2021/12/11 04:02:39;;;;;;;3.60;3.40;;;;;;;;;;5056857;28;20464;-79
2021/12/11 04:05:08;;;;;;;3.93;3.73;;;;;;;;;;5056393;28;20461;-80
2021/12/11 04:07:37;;;;;;;4.00;3.80;;;;;;;;;;5055839;28;20438;-81
2021/12/11 04:10:06;;;;;;;4.80;4.50;;;;;;;;;;5055197;28;20624;-79
2021/12/11 04:12:33;;;;;;;3.57;3.37;;;;;;;;;;5056002;28;20804;-78
2021/12/11 04:15:00;;;;;;;4.10;3.90;;;;;;;;;;5056422;28;20548;-80
2021/12/11 04:17:29;;;;;;;4.40;4.20;;;;;;;;;;5054941;28;20439;-81
2021/12/11 04:20:00;;;;;;;4.00;3.80;;;;;;;;;;5057347;28;20477;-80
2021/12/11 04:22:27;;;;;;;4.20;3.90;;;;;;;;;;5056371;28;20196;-79
2021/12/11 04:24:55;;;;;;;4.07;3.87;;;;;;;;;;5055600;28;20514;-78
2021/12/11 04:27:24;;;;;;;4.90;4.60;;;;;;;;;;5059101;28;20445;-77
2021/12/11 04:29:52;;;;;;;5.00;4.70;;;;;;;;;;5067515;28;20799;-77
2021/12/11 04:32:19;;;;;;;5.17;4.83;;;;;;;;;;5066388;28;20808;-78
2021/12/11 04:34:47;;;;;;;5.53;5.23;;;;;;;;;;5063199;28;20454;-79
2021/12/11 04:37:18;;;;;;;5.97;5.57;;;;;;;;;;5068179;28;20436;-79
2021/12/11 04:39:47;;;;;;;6.20;5.80;;;;;;;;;;5069801;28;20207;-78
2021/12/11 04:42:22;;;;;;;5.50;5.20;;;;;;;;;;5067536;28;20542;-80
2021/12/11 04:44:49;;;;;;;5.03;4.83;;;;;;;;;;5069439;28;20469;-79
2021/12/11 04:47:29;;;;;;;5.93;5.53;;;;;;;;;;5071702;28;20435;-79
2021/12/11 04:50:00;;;;;;;4.60;4.30;;;;;;;;;;5068316;28;20428;-78
2021/12/11 04:52:34;;;;;;;5.70;5.30;;;;;;;;;;5058330;28;20510;-78
2021/12/11 04:55:15;;;;;;;6.57;6.17;;;;;;;;;;5059380;28;20470;-79
2021/12/11 05:00:38;;;;;;;5.70;5.40;;;;;;;;;;5056372;28;20528;-80
2021/12/11 05:06:12;;;;;;;6.60;6.20;;;;;;;;;;5038593;28;20474;-79
2021/12/11 05:11:35;;;;;;;6.70;6.20;;;;;;;;;;5056559;28;20416;-78
2021/12/11 05:14:02;;;;;;;5.93;5.60;;;;;;;;;;5052570;28;20473;-79
2021/12/11 05:16:29;;;;;;;7.20;6.70;;;;;;;;;;5052915;28;20441;-79
2021/12/11 05:18:57;;;;;;;6.37;5.97;;;;;;;;;;5054092;28;20435;-79
2021/12/11 05:21:24;;;;;;;6.73;6.27;;;;;;;;;;5050025;28;20445;-79
2021/12/11 05:23:53;;;;;;;7.50;7.00;;;;;;;;;;5053911;28;20434;-79
2021/12/11 05:26:20;;;;;;;6.90;6.40;;;;;;;;;;5054965;28;20427;-79
2021/12/11 05:28:47;;;;;;;7.53;6.83;;;;;;;;;;5054723;28;20430;-79
2021/12/11 05:31:15;;;;;;;6.90;6.40;;;;;;;;;;5053968;28;20422;-80
2021/12/11 05:33:44;;;;;;;7.03;6.53;;;;;;;;;;5053828;28;20499;-78
2021/12/11 05:36:12;;;;;;;7.15;6.65;;;;;;;;;;5055726;28;20427;-79
2021/12/11 05:38:41;;;;;;;7.43;6.53;;;;;;;;;;5053989;28;20286;-79
2021/12/11 05:41:11;;;;;;;7.50;7.00;;;;;;;;;;5054780;28;20512;-79
2021/12/11 05:43:38;;;;;;;6.27;5.87;;;;;;;;;;5054942;28;20458;-79
2021/12/11 05:46:06;;;;;;;7.03;6.53;;;;;;;;;;5055311;28;20500;-80
2021/12/11 05:48:33;;;;;;;7.57;6.97;;;;;;;;;;5053213;28;20515;-79
2021/12/11 05:51:02;;;;;;;7.77;7.20;;;;;;;;;;5054809;28;20438;-80
2021/12/11 05:53:31;;;;;;;8.50;8.00;;;;;;;;;;5058432;28;20441;-79
2021/12/11 05:55:58;;;;;;;8.60;8.00;;;;;;;;;;5052143;28;20524;-78
2021/12/11 05:58:45;;;;;;;7.90;7.20;;;;;;;;;;5056123;28;20891;-79
2021/12/11 06:01:12;;;;;;;7.10;6.60;;;;;;;;;;5038724;28;20478;-80
2021/12/11 06:03:39;;;;;;;7.37;6.80;;;;;;;;;;5057926;28;20564;-78
2021/12/11 06:06:07;;;;;;;8.40;7.80;;;;;;;;;;5057017;28;20457;-79
2021/12/11 06:08:34;;;;;;;8.83;8.13;;;;;;;;;;5058354;28;20434;-79
2021/12/11 06:11:02;;;;;;;8.80;8.10;;;;;;;;;;5059414;28;20439;-79
2021/12/11 06:13:30;;;;;;;8.13;7.53;;;;;;;;;;5060055;28;20434;-79
2021/12/11 06:15:58;;;;;;;7.97;7.38;;;;;;;;;;5065882;28;20491;-78
2021/12/11 06:18:25;;;;;;;8.47;7.90;;;;;;;;;;5069802;28;20188;-78
2021/12/11 06:20:52;;;;;;;8.30;7.70;;;;;;;;;;5061237;28;20485;-79
2021/12/11 06:23:21;;;;;;;8.27;7.67;;;;;;;;;;5062708;28;20425;-78
2021/12/11 06:25:50;;;;;;;9.70;8.90;;;;;;;;;;5068137;28;20476;-78
2021/12/11 06:28:17;;;;;;;8.77;8.00;;;;;;;;;;5068095;28;20513;-79
2021/12/11 06:30:46;;;;;;;9.67;8.90;;;;;;;;;;5058114;28;20442;-79
2021/12/11 06:33:13;;;;;;;11.53;8.80;;;;;;;;;;5056995;28;20441;-80
2021/12/11 06:35:42;;;;;;;9.70;8.90;;;;;;;;;;5057756;28;20477;-78
2021/12/11 06:38:10;;;;;;;8.68;8.00;;;;;;;;;;5057898;28;20447;-80
2021/12/11 06:40:38;;;;;;;9.00;8.30;;;;;;;;;;5055533;28;20211;-79
2021/12/11 06:43:05;;;;;;;9.13;8.43;;;;;;;;;;5057070;28;20202;-80
2021/12/11 06:45:32;;;;;;;9.80;9.00;;;;;;;;;;5045769;28;20470;-78
2021/12/11 06:48:01;;;;;;;11.10;10.20;;;;;;;;;;5042482;28;20564;-80
2021/12/11 06:50:28;;;;;;;12.53;11.23;;;;;;;;;;5056377;28;20878;-79
2021/12/11 06:52:58;;;;;;;12.63;11.43;;;;;;;;;;5056926;28;20458;-80
2021/12/11 06:55:25;;;;;;;12.20;11.20;;;;;;;;;;5058265;28;20465;-79
2021/12/11 06:57:52;;;;;;;11.27;10.37;;;;;;;;;;5056490;28;20690;-81
2021/12/11 07:00:21;;;;;;;13.40;12.20;;;;;;;;;;5056329;28;20473;-81
2021/12/11 07:02:48;;;;;;;12.53;11.33;;;;;;;;;;5056879;28;20825;-79
2021/12/11 07:05:16;;;;;;;13.50;12.30;;;;;;;;;;5056886;28;20465;-80
2021/12/11 07:07:44;;;;;;;13.07;11.87;;;;;;;;;;5056715;28;20979;-80
2021/12/11 07:10:12;;;;;;;12.77;11.67;;;;;;;;;;5056699;28;20545;-80
2021/12/11 07:12:39;;;;;;;12.77;11.67;;;;;;;;;;5056083;28;20444;-80
2021/12/11 07:15:08;;;;;;;13.87;12.70;;;;;;;;;;5057250;28;20477;-78
2021/12/11 07:17:35;;;;;;;13.30;12.00;;;;;;;;;;5054900;28;20990;-78
2021/12/11 07:20:02;;;;;;;13.43;12.27;;;;;;;;;;5054638;28;20514;-78
2021/12/11 07:22:31;;;;;;;13.70;12.60;;;;;;;;;;5053867;28;20449;-78
2021/12/11 07:25:00;;;;;;;13.50;12.30;;;;;;;;;;5057827;28;20471;-78
2021/12/11 07:27:28;;;;;;;13.43;12.23;;;;;;;;;;5056190;28;20757;-78
2021/12/11 07:29:55;;;;;;;12.97;11.77;;;;;;;;;;5055585;28;20534;-78
2021/12/11 07:32:23;;;;;;;13.37;12.13;;;;;;;;;;5056452;28;20447;-78
2021/12/11 07:34:50;;;;;;;13.13;11.93;;;;;;;;;;5056611;28;20462;-79
2021/12/11 07:37:17;;;;;;;13.60;12.37;;;;;;;;;;5048859;28;20200;-78
2021/12/11 07:39:45;;;;;;;14.60;13.20;;;;;;;;;;5051387;28;20431;-79
2021/12/11 07:42:13;;;;;;;14.03;12.67;;;;;;;;;;5054358;28;20952;-77
2021/12/11 07:44:40;;;;;;;14.10;12.80;;;;;;;;;;5059847;28;20454;-79
2021/12/11 07:47:08;;;;;;;19.53;17.53;;;;;;;;;;5059347;28;20811;-79
2021/12/11 07:49:35;;;;;;;14.50;13.07;;;;;;;;;;5053793;28;20816;-80
2021/12/11 07:52:02;;;;;;;12.97;11.67;;;;;;;;;;5053869;28;20449;-78
2021/12/11 07:54:29;;;;;;;13.70;12.50;;;;;;;;;;5053506;28;20458;-79
2021/12/11 07:56:58;;;;;;;11.87;10.67;;;;;;;;;;5055334;28;20446;-78
2021/12/11 07:59:26;;;;;;;14.50;13.10;;;;;;;;;;5057992;28;20538;-80
2021/12/11 08:01:53;;;;;;;14.47;13.17;;;;;;;;;;5066807;28;20477;-79
2021/12/11 08:04:21;;;;;;;13.93;12.43;;;;;;;;;;5054601;28;20465;-79
2021/12/11 08:06:48;;;;;;;14.83;12.90;;;;;;;;;;5061451;28;20216;-78
2021/12/11 08:09:17;;;;;;;15.10;13.63;;;;;;;;;;5076186;28;20430;-78
2021/12/11 08:11:45;;;;;;;16.33;14.73;;;;;;;;;;5054932;28;20574;-79
2021/12/11 08:14:13;;;;;;;14.30;12.90;;;;;;;;;;5054583;28;20474;-80
2021/12/11 08:16:46;;;;;;;15.37;13.97;;;;;;;;;;5054346;28;20445;-79
2021/12/11 08:19:14;;;;;;;17.63;15.37;;;;;;;;;;5062912;28;20446;-79
2021/12/11 08:21:41;;;;;;;15.57;14.03;;;;;;;;;;5077498;28;20469;-79
2021/12/11 08:24:08;;;;;;;15.40;13.73;;;;;;;;;;5076890;28;20458;-80
2021/12/11 08:26:36;;;;;;;14.53;13.03;;;;;;;;;;5076141;28;20465;-78
2021/12/11 08:29:04;;;;;;;15.03;13.53;;;;;;;;;;5076262;28;20466;-78
2021/12/11 08:31:33;;;;;;;15.30;13.83;;;;;;;;;;5076867;28;20445;-79
2021/12/11 08:34:00;;;;;;;14.03;12.73;;;;;;;;;;5075324;28;20430;-78
2021/12/11 08:36:27;;;;;;;13.00;11.70;;;;;;;;;;5074948;28;20441;-79
2021/12/11 08:38:54;;;;;;;15.63;13.90;;;;;;;;;;5074570;28;20454;-78
2021/12/11 08:41:23;;;;;;;14.93;13.40;;;;;;;;;;5075336;28;20486;-79
2021/12/11 08:43:56;;;;;;;14.87;13.30;;;;;;;;;;5073894;28;20458;-78
2021/12/11 08:46:27;;;;;;;17.87;15.90;;;;;;;;;;5056752;28;20494;-79
2021/12/11 08:48:56;;;;;;;18.13;16.20;;;;;;;;;;5053498;28;20439;-78
2021/12/11 08:51:25;;;;;;;15.93;14.27;;;;;;;;;;5057296;28;20448;-78
2021/12/11 08:53:52;;;;;;;15.73;14.10;;;;;;;;;;5056624;28;20458;-78
2021/12/11 08:56:20;;;;;;;15.20;13.70;;;;;;;;;;5057370;28;20869;-78
2021/12/11 08:58:48;;;;;;;14.80;13.30;;;;;;;;;;5056303;28;20444;-79
2021/12/11 09:01:18;;;;;;;14.80;13.30;;;;;;;;;;5055186;28;20220;-78
2021/12/11 09:03:47;;;;;;;16.23;14.30;;;;;;;;;;5055498;28;20447;-79
2021/12/11 09:06:18;;;;;;;15.20;13.80;;;;;;;;;;5055369;28;20531;-78
2021/12/11 09:08:47;;;;;;;14.70;13.23;;;;;;;;;;5055013;28;20392;-79
2021/12/11 09:11:15;;;;;;;17.03;13.13;;;;;;;;;;5055201;28;20521;-79
2021/12/11 09:13:44;;;;;;;15.03;13.70;;;;;;;;;;5054043;28;20937;-80
2021/12/11 09:16:17;;;;;;;13.40;12.00;;;;;;;;;;5055553;28;20434;-80
2021/12/11 09:18:47;;;;;;;15.10;13.50;;;;;;;;;;5054732;28;20212;-78
2021/12/11 09:21:19;;;;;;;15.10;11.80;;;;;;;;;;5054710;28;20481;-79
2021/12/11 09:23:48;;;;;;;14.80;13.20;;;;;;;;;;5053918;28;20822;-79
2021/12/11 09:26:17;;;;;;;12.00;10.83;;;;;;;;;;5053917;28;20530;-80
2021/12/11 09:28:45;;;;;;;11.30;10.00;;;;;;;;;;5058342;28;20435;-80
2021/12/11 09:31:14;;;;;;;15.30;12.97;;;;;;;;;;5058558;28;20446;-78
2021/12/11 09:33:45;;;;;;;13.93;12.52;;;;;;;;;;5058585;28;20444;-79
2021/12/11 09:36:13;;;;;;;13.40;12.03;;;;;;;;;;5059240;28;20294;-79
2021/12/11 09:38:50;;;;;;;13.00;11.73;;;;;;;;;;5058723;28;20465;-78
2021/12/11 09:41:20;;;;;;;12.60;11.40;;;;;;;;;;5058681;28;20466;-79
2021/12/11 09:43:50;;;;;;;14.40;12.90;;;;;;;;;;5059388;28;20454;-78
2021/12/11 09:46:19;;;;;;;13.00;11.67;;;;;;;;;;5057871;28;20471;-80
2021/12/11 09:48:48;;;;;;;14.47;12.10;;;;;;;;;;5059909;28;20824;-79
2021/12/11 09:51:17;;;;;;;12.50;11.30;;;;;;;;;;5062592;28;20473;-78
2021/12/11 09:53:46;;;;;;;11.90;10.83;;;;;;;;;;5060041;28;20454;-79
2021/12/11 09:56:15;;;;;;;12.60;11.30;;;;;;;;;;5057962;28;20453;-79
2021/12/11 09:58:42;;;;;;;12.33;11.10;;;;;;;;;;5061804;28;20467;-79
2021/12/11 10:01:13;;;;;;;12.03;10.27;;;;;;;;;;5059022;28;20497;-79
2021/12/11 10:03:45;;;;;;;11.80;10.67;;;;;;;;;;5057942;28;20952;-79
2021/12/11 10:06:26;;;;;;;10.67;9.67;;;;;;;;;;5056763;28;20821;-79
2021/12/11 10:09:08;;;;;;;12.07;11.00;;;;;;;;;;5056301;28;20434;-80
2021/12/11 10:11:36;;;;;;;12.67;11.40;;;;;;;;;;5056980;28;20534;-79
2021/12/11 10:14:05;;;;;;;10.90;9.90;;;;;;;;;;5056210;28;20466;-80
2021/12/11 10:16:35;;;;;;;9.90;9.00;;;;;;;;;;5057386;28;20448;-78
2021/12/11 10:19:04;;;;;;;10.93;9.87;;;;;;;;;;5056960;28;20484;-79
2021/12/11 10:21:34;;;;;;;12.17;10.97;;;;;;;;;;5056172;28;20485;-79
2021/12/11 10:24:02;;;;;;;11.07;10.07;;;;;;;;;;5057864;28;20483;-79
2021/12/11 10:26:30;;;;;;;12.03;10.40;;;;;;;;;;5057064;28;20591;-79
2021/12/11 10:28:58;;;;;;;11.47;10.27;;;;;;;;;;5058034;28;20450;-79
2021/12/11 10:31:28;;;;;;;10.57;9.68;;;;;;;;;;5058935;28;20456;-80
2021/12/11 10:33:58;;;;;;;10.10;9.30;;;;;;;;;;5059147;28;20202;-78
2021/12/11 10:36:26;;;;;;;12.10;9.00;;;;;;;;;;5058195;28;20207;-79
2021/12/11 10:38:53;;;;;;;10.63;9.70;;;;;;;;;;5056131;28;20436;-79
2021/12/11 10:41:21;;;;;;;8.43;7.73;;;;;;;;;;5057017;28;20484;-79
2021/12/11 10:43:53;;;;;;;10.40;9.40;;;;;;;;;;5058258;28;20434;-79
2021/12/11 10:46:22;;;;;;;9.10;8.30;;;;;;;;;;5057212;28;20464;-79
2021/12/11 10:48:49;;;;;;;8.97;8.17;;;;;;;;;;5056716;28;20497;-79
2021/12/11 10:51:19;;;;;;;8.00;7.20;;;;;;;;;;5057190;28;20441;-79
2021/12/11 10:53:49;;;;;;;10.23;9.23;;;;;;;;;;5059512;28;20983;-80
2021/12/11 10:56:17;;;;;;;9.40;8.60;;;;;;;;;;5064121;28;20473;-80
2021/12/11 10:58:45;;;;;;;13.30;10.95;;;;;;;;;;5077590;28;20441;-80
2021/12/11 11:01:14;;;;;;;10.38;9.38;;;;;;;;;;5066699;28;20218;-79
2021/12/11 11:03:43;;;;;;;10.17;9.17;;;;;;;;;;5056434;28;20197;-79
2021/12/11 11:06:10;;;;;;;8.60;7.83;;;;;;;;;;5075419;28;20427;-79
2021/12/11 11:08:38;;;;;;;8.70;7.90;;;;;;;;;;5079008;28;20446;-79
2021/12/11 11:11:07;;;;;;;8.35;7.65;;;;;;;;;;5078835;28;20623;-79
2021/12/11 11:13:34;;;;;;;9.37;8.57;;;;;;;;;;5078163;28;20227;-79
2021/12/11 11:16:01;;;;;;;9.33;8.43;;;;;;;;;;5072306;28;20488;-79
2021/12/11 11:18:29;;;;;;;8.57;7.80;;;;;;;;;;5078374;28;20460;-80
2021/12/11 11:20:58;;;;;;;9.50;8.50;;;;;;;;;;5070008;28;20469;-78
2021/12/11 11:23:26;;;;;;;9.50;8.60;;;;;;;;;;5062213;28;20453;-79
2021/12/11 11:25:57;;;;;;;8.80;7.93;;;;;;;;;;5077635;28;20450;-79
2021/12/11 11:28:26;;;;;;;8.43;7.60;;;;;;;;;;5077503;28;20435;-79
2021/12/11 11:30:55;;;;;;;9.67;8.77;;;;;;;;;;5077137;28;20471;-80
2021/12/11 11:33:23;;;;;;;9.73;8.83;;;;;;;;;;5076166;28;20447;-78
2021/12/11 11:35:51;;;;;;;9.40;8.60;;;;;;;;;;5063439;28;20858;-78
2021/12/11 11:38:19;;;;;;;8.70;8.00;;;;;;;;;;5056407;28;20442;-79
2021/12/11 11:40:47;;;;;;;8.87;8.07;;;;;;;;;;5054220;28;20445;-79
2021/12/11 11:43:16;;;;;;;10.00;9.10;;;;;;;;;;5054089;28;20499;-78
2021/12/11 11:45:44;;;;;;;9.90;8.97;;;;;;;;;;5053621;28;20470;-77
2021/12/11 11:48:11;;;;;;;9.40;8.50;;;;;;;;;;5055358;28;20452;-78
2021/12/11 11:50:41;;;;;;;6.73;6.10;;;;;;;;;;5054517;28;20938;-78
2021/12/11 11:53:08;;;;;;;8.00;7.40;;;;;;;;;;5054751;28;20434;-79
2021/12/11 11:55:38;;;;;;;9.23;8.38;;;;;;;;;;5055092;28;20466;-79
2021/12/11 11:58:07;;;;;;;9.50;8.70;;;;;;;;;;5054908;28;20199;-78
2021/12/11 12:00:41;;;;;;;7.90;7.20;;;;;;;;;;5055083;28;20438;-78
2021/12/11 12:03:08;;;;;;;9.30;8.50;;;;;;;;;;5053841;28;20563;-78
2021/12/11 12:05:37;;;;;;;8.90;8.10;;;;;;;;;;5056337;28;20494;-78
2021/12/11 12:08:04;;;;;;;10.32;9.32;;;;;;;;;;5054311;28;20533;-78
2021/12/11 12:10:32;;;;;;;8.50;7.60;;;;;;;;;;5053376;28;20560;-79
2021/12/11 12:12:59;;;;;;;9.20;8.30;;;;;;;;;;5053289;28;20441;-79
2021/12/11 12:15:28;;;;;;;9.15;8.35;;;;;;;;;;5055617;28;20450;-78
2021/12/11 12:17:57;;;;;;;10.13;8.40;;;;;;;;;;5057702;28;20213;-77
2021/12/11 12:20:24;;;;;;;9.65;8.85;;;;;;;;;;5058024;28;20433;-79
2021/12/11 12:22:52;;;;;;;9.33;8.43;;;;;;;;;;5066586;28;20457;-79
2021/12/11 12:25:19;;;;;;;10.53;9.60;;;;;;;;;;5067687;28;20455;-78
2021/12/11 12:27:47;;;;;;;9.80;8.90;;;;;;;;;;5064257;28;20475;-77
2021/12/11 12:30:17;;;;;;;9.83;8.83;;;;;;;;;;5067021;28;20438;-79
2021/12/11 12:32:44;;;;;;;9.87;8.80;;;;;;;;;;5059968;28;20445;-78
2021/12/11 12:35:14;;;;;;;8.97;8.10;;;;;;;;;;5052457;28;20471;-77
2021/12/11 12:37:42;;;;;;;10.00;9.10;;;;;;;;;;5053084;28;20822;-78
2021/12/11 12:40:11;;;;;;;9.23;8.33;;;;;;;;;;5052706;28;20457;-78
2021/12/11 12:42:41;;;;;;;9.90;9.10;;;;;;;;;;5053577;28;20507;-79
2021/12/11 12:45:10;;;;;;;8.60;7.80;;;;;;;;;;5052398;28;20474;-78
2021/12/11 12:47:39;;;;;;;9.47;8.57;;;;;;;;;;5052805;28;20456;-77
2021/12/11 12:50:10;;;;;;;9.67;8.77;;;;;;;;;;5052652;28;20450;-78
2021/12/11 12:52:42;;;;;;;10.17;9.27;;;;;;;;;;5052703;28;20430;-79
2021/12/11 12:55:12;;;;;;;10.53;9.53;;;;;;;;;;5053378;28;21079;-79
2021/12/11 12:57:40;;;;;;;10.33;9.43;;;;;;;;;;5054120;28;20433;-79
2021/12/11 13:00:12;;;;;;;9.33;8.50;;;;;;;;;;5052479;28;20456;-80
2021/12/11 13:02:40;;;;;;;9.23;8.37;;;;;;;;;;5052431;28;20837;-79
2021/12/11 13:05:10;;;;;;;9.50;8.70;;;;;;;;;;5053449;28;20477;-79
2021/12/11 13:07:38;;;;;;;9.17;8.37;;;;;;;;;;5051468;28;20453;-81
2021/12/11 13:10:09;;;;;;;9.30;7.90;;;;;;;;;;5053172;28;20433;-79
2021/12/11 13:12:38;;;;;;;9.00;8.20;;;;;;;;;;5053153;28;20429;-80
2021/12/11 13:15:07;;;;;;;10.10;9.10;;;;;;;;;;5053144;28;20469;-78
2021/12/11 13:17:36;;;;;;;8.43;7.63;;;;;;;;;;5056580;28;20461;-79
2021/12/11 13:20:08;;;;;;;8.73;8.07;;;;;;;;;;5054417;28;20450;-80
2021/12/11 13:22:40;;;;;;;9.17;8.37;;;;;;;;;;5054627;28;20481;-80
2021/12/11 13:25:12;;;;;;;8.23;7.53;;;;;;;;;;5055437;28;20471;-80
2021/12/11 13:27:39;;;;;;;7.83;7.13;;;;;;;;;;5054855;28;20477;-80
2021/12/11 13:30:08;;;;;;;8.23;7.33;;;;;;;;;;5054572;28;20456;-80
2021/12/11 13:32:36;;;;;;;7.87;7.27;;;;;;;;;;5054413;28;20453;-79
2021/12/11 13:35:05;;;;;;;11.03;7.23;;;;;;;;;;5054937;28;20449;-79
2021/12/11 13:37:33;;;;;;;8.07;7.47;;;;;;;;;;5054704;28;20825;-80
2021/12/11 13:40:01;;;;;;;9.20;8.40;;;;;;;;;;5054944;28;20446;-80
2021/12/11 13:42:31;;;;;;;7.93;7.13;;;;;;;;;;5055309;28;20474;-79
2021/12/11 13:45:03;;;;;;;8.30;7.50;;;;;;;;;;5055463;28;20480;-79
2021/12/11 13:47:33;;;;;;;8.17;7.37;;;;;;;;;;5055806;28;20463;-79
2021/12/11 13:50:01;;;;;;;8.73;7.87;;;;;;;;;;5054278;28;20451;-79
2021/12/11 13:52:28;;;;;;;8.50;7.73;;;;;;;;;;5053318;28;20534;-79
2021/12/11 13:54:55;;;;;;;8.68;7.75;;;;;;;;;;5054231;28;20465;-79
2021/12/11 13:57:25;;;;;;;8.03;7.30;;;;;;;;;;5053628;28;20199;-79
2021/12/11 13:59:54;;;;;;;6.87;6.27;;;;;;;;;;5054365;28;20549;-80
2021/12/11 14:02:22;;;;;;;9.23;8.23;;;;;;;;;;5053516;28;20558;-79
2021/12/11 14:04:49;;;;;;;8.90;8.05;;;;;;;;;;5053601;28;20519;-79
2021/12/11 14:07:20;;;;;;;7.40;6.80;;;;;;;;;;5053737;28;20625;-81
2021/12/11 14:09:51;;;;;;;8.33;7.53;;;;;;;;;;5058934;28;20474;-79
2021/12/11 14:12:18;;;;;;;10.17;7.80;;;;;;;;;;5062466;28;20476;-78
2021/12/11 14:14:46;;;;;;;9.13;8.30;;;;;;;;;;5060749;28;20478;-79
2021/12/11 14:17:14;;;;;;;7.90;7.10;;;;;;;;;;5056786;28;20455;-79
2021/12/11 14:19:44;;;;;;;8.80;8.00;;;;;;;;;;5056591;28;20464;-79
2021/12/11 14:22:12;;;;;;;8.67;7.87;;;;;;;;;;5057214;28;20516;-80
2021/12/11 14:24:42;;;;;;;8.27;7.47;;;;;;;;;;5058214;28;20457;-81
2021/12/11 14:27:13;;;;;;;9.30;7.70;;;;;;;;;;5067496;28;20796;-80
2021/12/11 14:29:43;;;;;;;8.30;7.50;;;;;;;;;;5065785;28;20611;-78
2021/12/11 14:32:10;;;;;;;7.93;7.33;;;;;;;;;;5066297;28;20473;-80
2021/12/11 14:34:38;;;;;;;8.73;7.93;;;;;;;;;;5070246;28;20473;-80
2021/12/11 14:37:05;;;;;;;8.03;7.23;;;;;;;;;;5069405;28;20445;-81
2021/12/11 14:39:32;;;;;;;8.80;7.90;;;;;;;;;;5059071;28;20451;-79
2021/12/11 14:42:00;;;;;;;8.50;7.73;;;;;;;;;;5056549;28;20437;-81
2021/12/11 14:44:29;;;;;;;9.00;7.83;;;;;;;;;;5056404;28;20533;-79
2021/12/11 14:46:57;;;;;;;9.30;8.37;;;;;;;;;;5055949;28;20963;-79
2021/12/11 14:49:25;;;;;;;9.43;8.63;;;;;;;;;;5055674;28;20430;-79
2021/12/11 14:51:54;;;;;;;7.60;7.00;;;;;;;;;;5056942;28;20445;-81
2021/12/11 14:54:21;;;;;;;7.93;7.23;;;;;;;;;;5055741;28;20560;-79